createdAt,value
2023-02-27T00:01:46.260Z,102177.16
2023-02-27T00:04:14.065Z,102170.75
2023-02-27T00:06:41.658Z,102163.78
2023-02-27T00:09:09.406Z,102173.97
2023-02-27T00:11:38.531Z,102165.19
2023-02-27T00:14:06.388Z,102174.47
2023-02-27T00:16:34.188Z,102169.97
2023-02-27T00:19:04.653Z,102169.88
2023-02-27T00:21:32.654Z,102169.03
2023-02-27T00:24:00.354Z,102171.47
2023-02-27T00:26:27.960Z,102175.88
2023-02-27T00:28:57.036Z,102173.19
2023-02-27T00:31:24.939Z,102177.59
2023-02-27T00:33:52.770Z,102179.19
2023-02-27T00:36:20.433Z,102178.44
2023-02-27T00:38:48.303Z,102173.84
2023-02-27T00:41:15.973Z,102172.78
2023-02-27T00:43:43.747Z,102162.41
2023-02-27T00:46:12.925Z,102171.38
2023-02-27T00:48:40.623Z,102170.75
2023-02-27T00:51:08.315Z,102174.16
2023-02-27T00:53:36.025Z,102173.19
2023-02-27T00:56:03.724Z,102175.88
2023-02-27T00:58:31.776Z,102172.78
2023-02-27T01:01:00.945Z,102176.41
2023-02-27T01:03:29.960Z,102174.69
2023-02-27T01:05:58.860Z,102172.34
2023-02-27T01:08:26.622Z,102176.72
2023-02-27T01:10:55.233Z,102175.88
2023-02-27T01:13:23.387Z,102174.69
2023-02-27T01:15:51.093Z,102180.03
2023-02-27T01:18:18.956Z,102172.91
2023-02-27T01:20:47.960Z,102172.03
2023-02-27T01:23:15.623Z,102173.84
2023-02-27T01:25:43.320Z,102171.28
2023-02-27T01:28:11.158Z,102168.63
2023-02-27T01:30:38.867Z,102170.31
2023-02-27T01:33:06.540Z,102172.03
2023-02-27T01:35:34.158Z,102166.91
2023-02-27T01:38:03.206Z,102163.28
2023-02-27T01:40:30.840Z,102164.22
2023-02-27T01:42:58.492Z,102171.69
2023-02-27T01:45:33.320Z,102169.97
2023-02-27T01:48:16.923Z,102164.75
2023-02-27T01:50:49.774Z,102165.59
2023-02-27T01:53:20.972Z,102166.59
2023-02-27T01:55:49.871Z,102163.38
2023-02-27T01:58:17.990Z,102169.56
2023-02-27T02:00:46.530Z,102167.22
2023-02-27T02:03:21.133Z,102173.50
2023-02-27T02:05:49.810Z,102172.94
2023-02-27T02:08:24.284Z,102174.00
2023-02-27T02:10:54.479Z,102174.84
2023-02-27T02:13:23.395Z,102175.06
2023-02-27T02:16:02.818Z,102174.41
2023-02-27T02:18:37.641Z,102169.41
2023-02-27T02:21:49.645Z,102173.00
2023-02-27T02:24:54.360Z,102169.78
2023-02-27T02:27:38.944Z,102170.00
2023-02-27T02:30:58.223Z,102166.69
2023-02-27T02:34:06.134Z,102167.72
2023-02-27T02:37:11.343Z,102163.34
2023-02-27T02:39:55.008Z,102166.22
2023-02-27T02:42:26.637Z,102158.63
2023-02-27T02:45:04.007Z,102158.63
2023-02-27T02:47:37.399Z,102163.94
2023-02-27T02:50:13.271Z,102161.28
2023-02-27T02:52:52.490Z,102163.00
2023-02-27T02:55:26.198Z,102160.34
2023-02-27T02:58:02.430Z,102158.63
2023-02-27T03:00:34.443Z,102151.38
2023-02-27T03:03:08.473Z,102159.16
2023-02-27T03:05:40.774Z,102154.78
2023-02-27T03:08:11.764Z,102149.44
2023-02-27T03:10:46.383Z,102158.44
2023-02-27T03:13:21.708Z,102160.22
2023-02-27T03:15:56.732Z,102166.44
2023-02-27T03:18:28.981Z,102164.63
2023-02-27T03:21:00.727Z,102175.41
2023-02-27T03:23:33.592Z,102165.47
2023-02-27T03:26:04.941Z,102178.91
2023-02-27T03:28:37.024Z,102176.44
2023-02-27T03:31:10.642Z,102176.09
2023-02-27T03:33:46.002Z,102184.84
2023-02-27T03:36:22.216Z,102185.91
2023-02-27T03:38:55.491Z,102186.84
2023-02-27T03:41:30.414Z,102193.78
2023-02-27T03:44:05.907Z,102189.34
2023-02-27T03:46:33.615Z,102192.84
2023-02-27T03:49:01.203Z,102192.84
2023-02-27T03:51:31.108Z,102197.91
2023-02-27T03:54:05.076Z,102202.13
2023-02-27T03:56:42.544Z,102197.47
2023-02-27T03:59:10.404Z,102200.31
2023-02-27T04:01:38.827Z,102198.41
2023-02-27T04:04:11.327Z,102206.88
2023-02-27T04:06:58.846Z,102204.78
2023-02-27T04:09:39.689Z,102203.72
2023-02-27T04:12:28.762Z,102201.16
2023-02-27T04:15:08.424Z,102207.56
2023-02-27T04:17:45.347Z,102204.31
2023-02-27T04:20:28.927Z,102216.59
2023-02-27T04:23:03.202Z,102211.56
2023-02-27T04:25:45.578Z,102210.72
2023-02-27T04:28:19.169Z,102216.03
2023-02-27T04:30:59.848Z,102222.69
2023-02-27T04:33:43.034Z,102206.78
2023-02-27T04:36:17.573Z,102214.41
2023-02-27T04:38:50.096Z,102210.69
2023-02-27T04:41:23.757Z,102214.19
2023-02-27T04:43:54.756Z,102213.53
2023-02-27T04:46:26.509Z,102219.84
2023-02-27T04:48:59.891Z,102216.53
2023-02-27T04:51:32.966Z,102218.63
2023-02-27T04:54:04.834Z,102233.19
2023-02-27T04:56:37.029Z,102235.56
2023-02-27T04:59:09.222Z,102231.84
2023-02-27T05:01:40.926Z,102233.19
2023-02-27T05:04:12.297Z,102225.94
2023-02-27T05:06:44.232Z,102228.59
2023-02-27T05:09:20.308Z,102228.59
2023-02-27T05:11:52.230Z,102226.16
2023-02-27T05:14:26.968Z,102231.47
2023-02-27T05:17:01.405Z,102234.50
2023-02-27T05:19:30.878Z,102242.63
2023-02-27T05:22:07.096Z,102248.16
2023-02-27T05:24:41.158Z,102245.09
2023-02-27T05:27:23.435Z,102247.28
2023-02-27T05:29:54.128Z,102240.25
2023-02-27T05:32:33.494Z,102243.88
2023-02-27T05:35:09.965Z,102247.47
2023-02-27T05:37:44.079Z,102247.84
2023-02-27T05:40:16.537Z,102252.91
2023-02-27T05:42:48.328Z,102258.88
2023-02-27T05:45:21.307Z,102251.75
2023-02-27T05:47:57.190Z,102242.69
2023-02-27T05:50:29.021Z,102249.75
2023-02-27T05:53:03.922Z,102251.25
2023-02-27T05:55:36.365Z,102250.59
2023-02-27T05:58:11.409Z,102250.22
2023-02-27T06:00:43.779Z,102257.44
2023-02-27T06:03:12.038Z,102257.34
2023-02-27T06:05:42.116Z,102257.34
2023-02-27T06:08:10.243Z,102260.78
2023-02-27T06:10:37.986Z,102275.84
2023-02-27T06:13:05.812Z,102279.91
2023-02-27T06:15:33.492Z,102280.03
2023-02-27T06:18:02.460Z,102282.47
2023-02-27T06:20:30.197Z,102281.53
2023-02-27T06:22:57.781Z,102280.75
2023-02-27T06:25:25.419Z,102290.59
2023-02-27T06:27:54.009Z,102286.09
2023-02-27T06:30:21.717Z,102289.94
2023-02-27T06:32:49.375Z,102294.88
2023-02-27T06:35:18.747Z,102298.22
2023-02-27T06:37:46.713Z,102300.69
2023-02-27T06:40:14.798Z,102292.78
2023-02-27T06:42:43.596Z,102293.50
2023-02-27T06:45:13.019Z,102299.81
2023-02-27T06:47:41.780Z,102305.44
2023-02-27T06:50:12.119Z,102299.28
2023-02-27T06:52:41.853Z,102304.41
2023-02-27T06:55:11.096Z,102308.69
2023-02-27T06:57:38.908Z,102309.72
2023-02-27T07:00:09.228Z,102306.00
2023-02-27T07:02:36.935Z,102319.16
2023-02-27T07:05:08.062Z,102318.00
2023-02-27T07:07:38.215Z,102315.44
2023-02-27T07:10:11.238Z,102317.16
2023-02-27T07:12:40.773Z,102311.81
2023-02-27T07:15:09.671Z,102324.09
2023-02-27T07:17:39.923Z,102324.38
2023-02-27T07:20:10.590Z,102329.72
2023-02-27T07:22:38.911Z,102336.03
2023-02-27T07:25:10.134Z,102328.97
2023-02-27T07:27:40.330Z,102333.56
2023-02-27T07:30:09.531Z,102339.00
2023-02-27T07:32:37.193Z,102335.38
2023-02-27T07:35:05.631Z,102340.81
2023-02-27T07:37:33.338Z,102337.00
2023-02-27T07:40:01.158Z,102334.50
2023-02-27T07:42:30.129Z,102332.72
2023-02-27T07:44:58.067Z,102336.78
2023-02-27T07:47:25.731Z,102336.78
2023-02-27T07:49:53.522Z,102327.00
2023-02-27T07:52:22.238Z,102319.81
2023-02-27T07:54:49.932Z,102330.97
2023-02-27T07:57:17.860Z,102334.31
2023-02-27T07:59:48.357Z,102330.69
2023-02-27T08:02:16.300Z,102328.09
2023-02-27T08:04:44.081Z,102323.41
2023-02-27T08:07:14.277Z,102329.53
2023-02-27T08:09:42.315Z,102327.69
2023-02-27T08:12:10.039Z,102329.09
2023-02-27T08:14:38.660Z,102332.91
2023-02-27T08:17:07.800Z,102335.22
2023-02-27T08:19:35.649Z,102336.88
2023-02-27T08:22:03.602Z,102334.56
2023-02-27T08:24:31.230Z,102339.06
2023-02-27T08:26:59.141Z,102341.34
2023-02-27T08:29:27.927Z,102336.94
2023-02-27T08:31:55.642Z,102343.63
2023-02-27T08:34:25.563Z,102352.44
2023-02-27T08:36:53.847Z,102352.78
2023-02-27T08:39:24.055Z,102349.41
2023-02-27T08:41:52.417Z,102355.28
2023-02-27T08:44:20.950Z,102359.56
2023-02-27T08:46:50.053Z,102358.00
2023-02-27T08:49:20.010Z,102350.63
2023-02-27T08:51:50.383Z,102363.84
2023-02-27T08:54:18.818Z,102346.22
2023-02-27T08:56:46.587Z,102352.97
2023-02-27T08:59:14.289Z,102344.97
2023-02-27T09:01:42.499Z,102348.94
2023-02-27T09:04:11.025Z,102344.13
2023-02-27T09:06:39.289Z,102359.22
2023-02-27T09:09:08.483Z,102354.38
2023-02-27T09:11:38.479Z,102353.56
2023-02-27T09:14:07.233Z,102355.38
2023-02-27T09:16:37.439Z,102353.53
2023-02-27T09:19:08.471Z,102362.63
2023-02-27T09:21:37.289Z,102362.22
2023-02-27T09:24:17.571Z,102358.13
2023-02-27T09:26:49.096Z,102373.53
2023-02-27T09:29:17.475Z,102362.63
2023-02-27T09:31:48.400Z,102357.25
2023-02-27T09:34:16.478Z,102370.97
2023-02-27T09:36:44.094Z,102377.50
2023-02-27T09:39:12.087Z,102368.41
2023-02-27T09:41:51.552Z,102368.16
2023-02-27T09:44:44.939Z,102368.69
2023-02-27T09:47:18.751Z,102363.22
2023-02-27T09:50:00.512Z,102360.41
2023-02-27T09:52:29.887Z,102360.88
2023-02-27T09:54:58.120Z,102363.47
2023-02-27T09:57:38.728Z,102356.41
2023-02-27T10:00:30.446Z,102351.03
2023-02-27T10:03:05.421Z,102352.09
2023-02-27T10:05:41.297Z,102364.31
2023-02-27T10:08:18.234Z,102353.28
2023-02-27T10:10:55.204Z,102361.06
2023-02-27T10:13:51.773Z,102359.19
2023-02-27T10:16:23.404Z,102356.78
2023-02-27T10:18:57.999Z,102358.19
2023-02-27T10:21:32.494Z,102360.66
2023-02-27T10:24:08.345Z,102356.00
2023-02-27T10:26:39.428Z,102363.84
2023-02-27T10:29:18.609Z,102361.81
2023-02-27T10:31:53.373Z,102363.47
2023-02-27T10:34:23.616Z,102359.59
2023-02-27T10:36:52.246Z,102373.69
2023-02-27T10:39:21.953Z,102379.28
2023-02-27T10:41:51.023Z,102367.41
2023-02-27T10:44:19.468Z,102376.47
2023-02-27T10:46:51.791Z,102377.00
2023-02-27T10:49:22.042Z,102369.09
2023-02-27T10:52:08.154Z,102371.72
2023-02-27T10:54:36.974Z,102376.69
2023-02-27T10:57:19.285Z,102372.16
2023-02-27T10:59:53.854Z,102371.19
2023-02-27T11:02:27.222Z,102371.56
2023-02-27T11:04:56.872Z,102365.34
2023-02-27T11:07:32.574Z,102362.91
2023-02-27T11:10:03.355Z,102361.47
2023-02-27T11:12:32.830Z,102358.34
2023-02-27T11:15:02.708Z,102357.13
2023-02-27T11:17:33.979Z,102345.44
2023-02-27T11:20:06.115Z,102347.16
2023-02-27T11:22:34.201Z,102342.00
2023-02-27T11:25:20.089Z,102343.72
2023-02-27T11:27:48.368Z,102342.69
2023-02-27T11:30:27.063Z,102348.06
2023-02-27T11:32:58.425Z,102336.81
2023-02-27T11:35:29.479Z,102334.25
2023-02-27T11:38:01.022Z,102335.47
2023-02-27T11:40:33.135Z,102332.97
2023-02-27T11:43:08.304Z,102341.16
2023-02-27T11:46:20.416Z,102349.59
2023-02-27T11:48:36.102Z,102334.38
2023-02-27T11:51:26.923Z,102337.81
2023-02-27T11:54:09.367Z,102339.13
2023-02-27T11:56:39.816Z,102342.66
2023-02-27T11:59:21.716Z,102339.13
2023-02-27T12:01:54.460Z,102335.81
2023-02-27T12:04:28.332Z,102337.16
2023-02-27T12:07:01.279Z,102331.88
2023-02-27T12:09:39.184Z,102339.09
2023-02-27T12:12:16.383Z,102338.84
2023-02-27T12:14:51.255Z,102342.19
2023-02-27T12:17:24.410Z,102334.19
2023-02-27T12:20:07.621Z,102337.75
2023-02-27T12:22:41.553Z,102332.53
2023-02-27T12:25:20.766Z,102334.09
2023-02-27T12:27:55.439Z,102331.28
2023-02-27T12:30:27.095Z,102333.72
2023-02-27T12:33:00.976Z,102331.28
2023-02-27T12:35:32.937Z,102320.00
2023-02-27T12:38:01.974Z,102326.75
2023-02-27T12:40:32.333Z,102330.22
2023-02-27T12:43:14.577Z,102325.06
2023-02-27T12:45:56.870Z,102313.88
2023-02-27T12:48:41.300Z,102324.69
2023-02-27T12:51:20.937Z,102316.44
2023-02-27T12:54:12.255Z,102310.13
2023-02-27T12:56:50.309Z,102318.81
2023-02-27T12:59:38.956Z,102319.88
2023-02-27T13:02:26.666Z,102325.44
2023-02-27T13:05:03.066Z,102315.66
2023-02-27T13:07:36.763Z,102319.19
2023-02-27T13:10:11.606Z,102328.72
2023-02-27T13:12:45.273Z,102318.34
2023-02-27T13:15:19.981Z,102321.88
2023-02-27T13:17:50.505Z,102321.97
2023-02-27T13:20:30.668Z,102318.34
2023-02-27T13:23:11.865Z,102323.25
2023-02-27T13:25:43.100Z,102310.50
2023-02-27T13:28:16.714Z,102312.84
2023-02-27T13:30:48.040Z,102311.06
2023-02-27T13:33:26.009Z,102311.78
2023-02-27T13:36:07.520Z,102295.50
2023-02-27T13:38:43.587Z,102302.84
2023-02-27T13:41:40.532Z,102299.31
2023-02-27T13:44:47.866Z,102299.88
2023-02-27T13:47:49.931Z,102302.69
2023-02-27T13:50:50.179Z,102291.09
2023-02-27T13:53:24.074Z,102302.06
2023-02-27T13:56:01.095Z,102306.63
2023-02-27T13:58:31.025Z,102315.25
2023-02-27T14:01:02.209Z,102309.97
2023-02-27T14:03:32.299Z,102311.63
2023-02-27T14:06:06.099Z,102313.97
2023-02-27T14:08:48.123Z,102318.34
2023-02-27T14:11:24.387Z,102321.19
2023-02-27T14:14:14.448Z,102321.41
2023-02-27T14:17:03.417Z,102317.97
2023-02-27T14:19:51.632Z,102315.53
2023-02-27T14:22:44.806Z,102319.06
2023-02-27T14:25:27.304Z,102326.63
2023-02-27T14:27:58.896Z,102328.72
2023-02-27T14:30:32.860Z,102322.63
2023-02-27T14:33:03.903Z,102313.34
2023-02-27T14:35:33.471Z,102314.69
2023-02-27T14:38:09.163Z,102314.00
2023-02-27T14:40:44.039Z,102321.13
2023-02-27T14:43:24.348Z,102322.47
2023-02-27T14:45:54.075Z,102323.19
2023-02-27T14:48:28.346Z,102320.97
2023-02-27T14:50:58.124Z,102325.13
2023-02-27T14:53:27.791Z,102323.53
2023-02-27T14:55:57.138Z,102329.06
2023-02-27T14:58:26.605Z,102327.47
2023-02-27T15:01:07.287Z,102322.09
2023-02-27T15:03:40.291Z,102321.38
2023-02-27T15:06:18.988Z,102320.06
2023-02-27T15:08:50.581Z,102322.97
2023-02-27T15:11:21.821Z,102320.63
2023-02-27T15:13:59.004Z,102323.44
2023-02-27T15:16:39.291Z,102320.28
2023-02-27T15:19:18.842Z,102328.34
2023-02-27T15:21:50.560Z,102327.59
2023-02-27T15:24:28.611Z,102325.59
2023-02-27T15:27:00.456Z,102341.81
2023-02-27T15:29:35.122Z,102335.31
2023-02-27T15:32:03.951Z,102332.63
2023-02-27T15:34:31.921Z,102340.00
2023-02-27T15:37:01.031Z,102335.84
2023-02-27T15:39:30.999Z,102339.66
2023-02-27T15:42:02.827Z,102336.34
2023-02-27T15:44:36.773Z,102335.75
2023-02-27T15:47:05.075Z,102340.41
2023-02-27T15:49:33.572Z,102345.06
2023-02-27T15:52:05.508Z,102342.78
2023-02-27T15:54:35.702Z,102336.03
2023-02-27T15:57:06.072Z,102341.03
2023-02-27T15:59:41.396Z,102345.69
2023-02-27T16:02:17.757Z,102355.81
2023-02-27T16:04:46.947Z,102345.69
2023-02-27T16:07:18.082Z,102350.31
2023-02-27T16:09:50.827Z,102358.88
2023-02-27T16:12:31.559Z,102358.13
2023-02-27T16:15:38.439Z,102357.53
2023-02-27T16:18:28.632Z,102362.41
2023-02-27T16:21:11.155Z,102359.47
2023-02-27T16:23:41.855Z,102366.19
2023-02-27T16:26:36.557Z,102370.09
2023-02-27T16:29:07.211Z,102369.34
2023-02-27T16:31:38.536Z,102372.41
2023-02-27T16:34:19.693Z,102365.56
2023-02-27T16:36:54.392Z,102378.28
2023-02-27T16:39:22.220Z,102376.31
2023-02-27T16:41:50.299Z,102380.09
2023-02-27T16:44:18.324Z,102375.31
2023-02-27T16:46:47.593Z,102387.16
2023-02-27T16:49:20.945Z,102387.53
2023-02-27T16:51:49.072Z,102392.28
2023-02-27T16:54:17.439Z,102393.25
2023-02-27T16:56:46.385Z,102403.75
2023-02-27T16:59:28.322Z,102393.06
2023-02-27T17:01:59.099Z,102391.34
2023-02-27T17:04:28.695Z,102391.69
2023-02-27T17:06:58.205Z,102395.72
2023-02-27T17:09:28.196Z,102400.97
2023-02-27T17:11:57.546Z,102401.09
2023-02-27T17:14:25.473Z,102401.22
2023-02-27T17:16:53.557Z,102404.75
2023-02-27T17:19:22.650Z,102404.75
2023-02-27T17:21:50.539Z,102401.81
2023-02-27T17:24:18.463Z,102410.63
2023-02-27T17:26:46.250Z,102404.41
2023-02-27T17:29:15.142Z,102404.28
2023-02-27T17:31:44.635Z,102408.69
2023-02-27T17:34:12.354Z,102401.59
2023-02-27T17:36:43.220Z,102413.56
2023-02-27T17:39:12.728Z,102417.09
2023-02-27T17:41:44.949Z,102420.75
2023-02-27T17:44:13.370Z,102421.63
2023-02-27T17:46:42.522Z,102426.00
2023-02-27T17:49:10.458Z,102419.66
2023-02-27T17:51:38.247Z,102422.34
2023-02-27T17:54:07.688Z,102423.56
2023-02-27T17:56:37.004Z,102421.97
2023-02-27T17:59:08.096Z,102421.84
2023-02-27T18:01:36.705Z,102423.91
2023-02-27T18:04:05.024Z,102417.69
2023-02-27T18:06:32.774Z,102423.53
2023-02-27T18:09:00.576Z,102421.59
2023-02-27T18:11:29.738Z,102420.84
2023-02-27T18:13:57.632Z,102419.22
2023-02-27T18:16:25.606Z,102416.44
2023-02-27T18:18:54.962Z,102422.28
2023-02-27T18:21:24.408Z,102419.38
2023-02-27T18:23:53.540Z,102411.94
2023-02-27T18:26:32.459Z,102424.16
2023-02-27T18:29:03.773Z,102418.66
2023-02-27T18:31:33.416Z,102421.97
2023-02-27T18:34:01.972Z,102422.88
2023-02-27T18:36:30.442Z,102417.50
2023-02-27T18:39:01.551Z,102415.34
2023-02-27T18:41:30.171Z,102416.28
2023-02-27T18:43:59.452Z,102423.59
2023-02-27T18:46:29.329Z,102419.88
2023-02-27T18:48:57.285Z,102424.78
2023-02-27T18:51:25.437Z,102421.63
2023-02-27T18:53:54.277Z,102422.09
2023-02-27T18:56:24.834Z,102423.06
2023-02-27T18:58:53.485Z,102420.00
2023-02-27T19:01:23.765Z,102422.88
2023-02-27T19:03:56.220Z,102417.41
2023-02-27T19:06:24.260Z,102424.34
2023-02-27T19:08:52.928Z,102424.72
2023-02-27T19:11:25.275Z,102432.53
2023-02-27T19:13:53.245Z,102431.91
2023-02-27T19:16:21.152Z,102424.59
2023-02-27T19:18:48.861Z,102428.63
2023-02-27T19:21:18.028Z,102429.19
2023-02-27T19:23:48.108Z,102425.75
2023-02-27T19:26:15.756Z,102436.69
2023-02-27T19:28:43.768Z,102426.00
2023-02-27T19:31:15.893Z,102426.72
2023-02-27T19:33:44.546Z,102429.06
2023-02-27T19:36:14.073Z,102431.13
2023-02-27T19:38:44.178Z,102429.91
2023-02-27T19:41:16.637Z,102430.13
2023-02-27T19:43:47.181Z,102428.19
2023-02-27T19:46:17.258Z,102423.91
2023-02-27T19:48:45.222Z,102433.66
2023-02-27T19:51:16.063Z,102430.75
2023-02-27T19:53:48.291Z,102423.44
2023-02-27T19:56:18.397Z,102429.53
2023-02-27T19:58:47.742Z,102428.81
2023-02-27T20:01:21.513Z,102425.88
2023-02-27T20:03:49.622Z,102431.00
2023-02-27T20:06:19.504Z,102424.16
2023-02-27T20:08:48.534Z,102419.75
2023-02-27T20:11:17.356Z,102417.06
2023-02-27T20:13:46.304Z,102417.31
2023-02-27T20:16:16.088Z,102424.16
2023-02-27T20:18:43.935Z,102419.75
2023-02-27T20:21:14.365Z,102420.25
2023-02-27T20:23:46.290Z,102432.59
2023-02-27T20:26:19.673Z,102434.06
2023-02-27T20:28:49.370Z,102430.28
2023-02-27T20:31:21.043Z,102432.34
2023-02-27T20:33:50.322Z,102435.03
2023-02-27T20:36:18.773Z,102442.44
2023-02-27T20:38:47.468Z,102451.50
2023-02-27T20:41:18.692Z,102443.66
2023-02-27T20:43:47.165Z,102438.84
2023-02-27T20:46:17.235Z,102439.09
2023-02-27T20:48:45.560Z,102442.03
2023-02-27T20:51:15.486Z,102443.50
2023-02-27T20:53:46.524Z,102444.97
2023-02-27T20:56:19.120Z,102445.94
2023-02-27T20:58:47.603Z,102443.25
2023-02-27T21:01:16.626Z,102449.09
2023-02-27T21:03:46.600Z,102444.59
2023-02-27T21:06:19.056Z,102441.78
2023-02-27T21:08:52.698Z,102443.50
2023-02-27T21:11:27.397Z,102452.13
2023-02-27T21:13:58.648Z,102453.31
2023-02-27T21:16:26.701Z,102447.00
2023-02-27T21:18:56.577Z,102445.38
2023-02-27T21:21:28.390Z,102452.69
2023-02-27T21:23:57.500Z,102449.88
2023-02-27T21:26:29.575Z,102450.25
2023-02-27T21:28:58.891Z,102454.22
2023-02-27T21:31:30.589Z,102460.47
2023-02-27T21:34:00.106Z,102456.06
2023-02-27T21:36:29.288Z,102459.75
2023-02-27T21:38:58.074Z,102455.00
2023-02-27T21:41:27.932Z,102462.31
2023-02-27T21:43:58.792Z,102467.78
2023-02-27T21:46:27.023Z,102464.13
2023-02-27T21:48:57.554Z,102467.44
2023-02-27T21:51:38.655Z,102458.75
2023-02-27T21:54:11.315Z,102459.22
2023-02-27T21:56:41.040Z,102460.19
2023-02-27T21:59:09.176Z,102464.06
2023-02-27T22:01:38.333Z,102471.16
2023-02-27T22:04:06.990Z,102457.41
2023-02-27T22:06:35.296Z,102466.59
2023-02-27T22:09:05.749Z,102467.66
2023-02-27T22:11:34.888Z,102463.28
2023-02-27T22:14:04.464Z,102457.41
2023-02-27T22:16:32.130Z,102465.16
2023-02-27T22:19:00.524Z,102463.81
2023-02-27T22:21:28.778Z,102471.97
2023-02-27T22:23:58.786Z,102469.00
2023-02-27T22:26:29.070Z,102479.06
2023-02-27T22:28:58.152Z,102481.09
2023-02-27T22:31:31.633Z,102489.38
2023-02-27T22:34:03.116Z,102488.97
2023-02-27T22:36:32.481Z,102487.06
2023-02-27T22:39:00.477Z,102488.56
2023-02-27T22:41:30.641Z,102485.88
2023-02-27T22:44:01.168Z,102493.91
2023-02-27T22:46:32.318Z,102493.91
2023-02-27T22:49:02.458Z,102494.56
2023-02-27T22:51:31.894Z,102484.59
2023-02-27T22:54:01.869Z,102486.06
2023-02-27T22:56:30.423Z,102494.03
2023-02-27T22:58:58.078Z,102482.84
2023-02-27T23:01:27.330Z,102493.38
2023-02-27T23:03:58.577Z,102489.75
2023-02-27T23:06:29.076Z,102485.88
2023-02-27T23:08:56.929Z,102499.03
2023-02-27T23:11:24.980Z,102500.22
2023-02-27T23:13:52.693Z,102495.81
2023-02-27T23:16:21.602Z,102494.03
2023-02-27T23:18:52.133Z,102497.56
2023-02-27T23:21:24.977Z,102503.69
2023-02-27T23:23:54.270Z,102496.91
2023-02-27T23:26:22.870Z,102503.97
2023-02-27T23:28:50.678Z,102509.47
2023-02-27T23:31:18.607Z,102506.13
2023-02-27T23:33:49.259Z,102508.91
2023-02-27T23:36:16.876Z,102508.19
2023-02-27T23:38:47.613Z,102509.03
2023-02-27T23:41:17.538Z,102514.28
2023-02-27T23:44:03.666Z,102517.91
2023-02-27T23:46:32.907Z,102514.25
2023-02-27T23:49:02.825Z,102519.44
2023-02-27T23:51:31.305Z,102521.03
2023-02-27T23:54:00.934Z,102517.28
2023-02-27T23:56:30.484Z,102520.94
2023-02-27T23:59:01.630Z,102518.34
